Terminal Aerodrome Forecast
Issued by NWS

Home | Current Version | Previous Version | Text Only | Print | Product List | Glossary On
Versions: 1 2 3 4 5 6 7 8 9 10 11 12 13 14 15 16 17
292
FTUS43 KAPX 251232 CCA
TAFAPN
TAF COR
KAPN 251232Z 2512/2612 34009KT P6SM -RA BKN006 OVC040
     FM251330 35009KT P6SM BKN015 OVC040
     FM251500 36009KT P6SM OVC025
     FM251900 34010KT P6SM SCT030
     FM252200 33009KT P6SM FEW250
     FM260700 31005KT 6SM BR SKC=

USA.gov is the U.S. government's official web portal to all federal, state and local government web resources and services.